sensor_id;sensor_type;location;lat;lon;timestamp;temperature;humidity
30063;DHT22;16889;67.864;24.990;2023-01-16T00:03:15;-0.20;99.90
30063;DHT22;16889;67.864;24.990;2023-01-16T00:08:01;-0.20;99.90
30063;DHT22;16889;67.864;24.990;2023-01-16T00:12:48;-0.10;99.90
30063;DHT22;16889;67.864;24.990;2023-01-16T00:17:34;-0.10;99.90
30063;DHT22;16889;67.864;24.990;2023-01-16T00:22:20;-0.10;99.90
30063;DHT22;16889;67.864;24.990;2023-01-16T00:27:06;-0.10;99.90
30063;DHT22;16889;67.864;24.990;2023-01-16T00:31:52;-0.10;99.90
30063;DHT22;16889;67.864;24.990;2023-01-16T00:36:38;0.00;99.90
30063;DHT22;16889;67.864;24.990;2023-01-16T00:41:25;-0.10;99.90
30063;DHT22;16889;67.864;24.990;2023-01-16T00:46:11;-0.10;99.90
30063;DHT22;16889;67.864;24.990;2023-01-16T01:58:36;0.10;99.90
30063;DHT22;16889;67.864;24.990;2023-01-16T02:03:42;0.10;99.90
30063;DHT22;16889;67.864;24.990;2023-01-16T02:08:31;0.10;99.90
30063;DHT22;16889;67.864;24.990;2023-01-16T02:13:18;0.10;99.90
30063;DHT22;16889;67.864;24.990;2023-01-16T02:18:09;0.10;99.90
30063;DHT22;16889;67.864;24.990;2023-01-16T03:23:54;0.30;99.90
30063;DHT22;16889;67.864;24.990;2023-01-16T03:34:10;0.30;99.90
30063;DHT22;16889;67.864;24.990;2023-01-16T03:39:00;0.30;99.90
30063;DHT22;16889;67.864;24.990;2023-01-16T04:11:22;0.50;99.90
30063;DHT22;16889;67.864;24.990;2023-01-16T04:16:11;0.50;99.90
30063;DHT22;16889;67.864;24.990;2023-01-16T04:21:03;0.40;99.90
30063;DHT22;16889;67.864;24.990;2023-01-16T04:25:50;0.40;99.90
30063;DHT22;16889;67.864;24.990;2023-01-16T04:30:36;0.40;99.90
30063;DHT22;16889;67.864;24.990;2023-01-16T04:35:22;0.40;99.90
30063;DHT22;16889;67.864;24.990;2023-01-16T04:40:09;0.40;99.90
30063;DHT22;16889;67.864;24.990;2023-01-16T04:44:55;0.50;99.90
30063;DHT22;16889;67.864;24.990;2023-01-16T04:49:41;0.40;99.90
30063;DHT22;16889;67.864;24.990;2023-01-16T04:54:27;0.40;99.90
30063;DHT22;16889;67.864;24.990;2023-01-16T04:59:13;0.40;99.90
30063;DHT22;16889;67.864;24.990;2023-01-16T05:03:59;0.40;99.90
30063;DHT22;16889;67.864;24.990;2023-01-16T05:08:45;0.40;99.90
30063;DHT22;16889;67.864;24.990;2023-01-16T05:13:31;0.40;99.90
30063;DHT22;16889;67.864;24.990;2023-01-16T05:18:17;0.40;99.90
30063;DHT22;16889;67.864;24.990;2023-01-16T05:45:22;0.40;99.90
30063;DHT22;16889;67.864;24.990;2023-01-16T05:50:09;0.60;99.90
30063;DHT22;16889;67.864;24.990;2023-01-16T05:54:55;0.50;99.90
30063;DHT22;16889;67.864;24.990;2023-01-16T05:59:41;0.50;99.90
30063;DHT22;16889;67.864;24.990;2023-01-16T06:04:31;0.50;99.90
30063;DHT22;16889;67.864;24.990;2023-01-16T06:09:17;0.50;99.90
30063;DHT22;16889;67.864;24.990;2023-01-16T06:14:03;0.40;99.90
30063;DHT22;16889;67.864;24.990;2023-01-16T06:18:50;0.50;99.90
30063;DHT22;16889;67.864;24.990;2023-01-16T06:23:36;0.40;99.90
30063;DHT22;16889;67.864;24.990;2023-01-16T06:28:22;0.50;99.90
30063;DHT22;16889;67.864;24.990;2023-01-16T06:33:08;0.50;99.90
30063;DHT22;16889;67.864;24.990;2023-01-16T06:37:54;0.40;99.90
30063;DHT22;16889;67.864;24.990;2023-01-16T06:42:40;0.40;99.90
30063;DHT22;16889;67.864;24.990;2023-01-16T09:38:40;0.50;99.90
30063;DHT22;16889;67.864;24.990;2023-01-16T09:43:40;0.50;99.90
30063;DHT22;16889;67.864;24.990;2023-01-16T09:48:32;0.40;99.90
30063;DHT22;16889;67.864;24.990;2023-01-16T09:53:49;0.50;99.90
30063;DHT22;16889;67.864;24.990;2023-01-16T09:59:06;0.60;99.90
30063;DHT22;16889;67.864;24.990;2023-01-16T10:04:14;0.60;99.90
30063;DHT22;16889;67.864;24.990;2023-01-16T11:36:08;0.30;99.90
30063;DHT22;16889;67.864;24.990;2023-01-16T16:16:03;0.00;99.90
30063;DHT22;16889;67.864;24.990;2023-01-16T16:21:30;0.00;99.90
30063;DHT22;16889;67.864;24.990;2023-01-16T16:26:17;-0.10;99.90
30063;DHT22;16889;67.864;24.990;2023-01-16T16:31:16;0.00;99.90
30063;DHT22;16889;67.864;24.990;2023-01-16T16:36:15;0.00;99.90
30063;DHT22;16889;67.864;24.990;2023-01-16T16:45:53;0.00;99.90
30063;DHT22;16889;67.864;24.990;2023-01-16T16:50:39;0.00;99.90
30063;DHT22;16889;67.864;24.990;2023-01-16T16:55:37;0.10;99.90
30063;DHT22;16889;67.864;24.990;2023-01-16T17:00:24;0.10;99.90
30063;DHT22;16889;67.864;24.990;2023-01-16T17:05:14;0.10;99.90
30063;DHT22;16889;67.864;24.990;2023-01-16T17:10:13;0.10;99.90
30063;DHT22;16889;67.864;24.990;2023-01-16T17:14:59;0.10;99.90
30063;DHT22;16889;67.864;24.990;2023-01-16T17:19:46;0.00;99.90
30063;DHT22;16889;67.864;24.990;2023-01-16T17:24:32;0.10;99.90
30063;DHT22;16889;67.864;24.990;2023-01-16T17:29:18;0.20;99.90
30063;DHT22;16889;67.864;24.990;2023-01-16T17:34:07;0.10;99.90
30063;DHT22;16889;67.864;24.990;2023-01-16T17:38:54;0.10;99.90
30063;DHT22;16889;67.864;24.990;2023-01-16T17:43:40;0.20;99.90
30063;DHT22;16889;67.864;24.990;2023-01-16T17:48:46;0.20;99.90
30063;DHT22;16889;67.864;24.990;2023-01-16T17:53:32;0.10;99.90
30063;DHT22;16889;67.864;24.990;2023-01-16T17:58:31;0.10;99.90
30063;DHT22;16889;67.864;24.990;2023-01-16T18:03:32;0.20;99.90
30063;DHT22;16889;67.864;24.990;2023-01-16T18:08:19;0.10;99.90
30063;DHT22;16889;67.864;24.990;2023-01-16T18:13:05;0.20;99.90
30063;DHT22;16889;67.864;24.990;2023-01-16T18:18:09;0.20;99.90
30063;DHT22;16889;67.864;24.990;2023-01-16T18:22:55;0.20;99.90
30063;DHT22;16889;67.864;24.990;2023-01-16T18:27:41;0.20;99.90
30063;DHT22;16889;67.864;24.990;2023-01-16T18:32:27;0.20;99.90
30063;DHT22;16889;67.864;24.990;2023-01-16T18:37:14;0.20;99.90
30063;DHT22;16889;67.864;24.990;2023-01-16T18:42:01;0.20;99.90
30063;DHT22;16889;67.864;24.990;2023-01-16T18:47:05;0.20;99.90
30063;DHT22;16889;67.864;24.990;2023-01-16T18:52:14;0.20;99.90
30063;DHT22;16889;67.864;24.990;2023-01-16T18:57:23;0.20;99.90
30063;DHT22;16889;67.864;24.990;2023-01-16T19:02:46;0.20;99.90
30063;DHT22;16889;67.864;24.990;2023-01-16T19:07:34;0.20;99.90
30063;DHT22;16889;67.864;24.990;2023-01-16T19:12:22;0.20;99.90
30063;DHT22;16889;67.864;24.990;2023-01-16T19:17:09;0.20;99.90
30063;DHT22;16889;67.864;24.990;2023-01-16T19:21:59;0.20;99.90
30063;DHT22;16889;67.864;24.990;2023-01-16T19:26:45;0.20;99.90
30063;DHT22;16889;67.864;24.990;2023-01-16T19:31:31;0.30;99.90
30063;DHT22;16889;67.864;24.990;2023-01-16T19:36:17;0.30;99.90
30063;DHT22;16889;67.864;24.990;2023-01-16T19:41:05;0.30;99.90
30063;DHT22;16889;67.864;24.990;2023-01-16T19:46:12;0.20;99.90
30063;DHT22;16889;67.864;24.990;2023-01-16T19:51:17;0.20;99.90
30063;DHT22;16889;67.864;24.990;2023-01-16T19:56:03;0.20;99.90
30063;DHT22;16889;67.864;24.990;2023-01-16T20:00:51;0.20;99.90
30063;DHT22;16889;67.864;24.990;2023-01-16T20:05:37;0.30;99.90
30063;DHT22;16889;67.864;24.990;2023-01-16T20:10:23;0.30;99.90
30063;DHT22;16889;67.864;24.990;2023-01-16T20:15:11;0.20;99.90
30063;DHT22;16889;67.864;24.990;2023-01-16T20:20:02;0.30;99.90
30063;DHT22;16889;67.864;24.990;2023-01-16T20:24:49;0.30;99.90
30063;DHT22;16889;67.864;24.990;2023-01-16T20:29:35;0.30;99.90
30063;DHT22;16889;67.864;24.990;2023-01-16T20:34:39;0.20;99.90
30063;DHT22;16889;67.864;24.990;2023-01-16T20:39:27;0.20;99.90
30063;DHT22;16889;67.864;24.990;2023-01-16T20:44:22;0.20;99.90
30063;DHT22;16889;67.864;24.990;2023-01-16T20:49:26;0.20;99.90
30063;DHT22;16889;67.864;24.990;2023-01-16T20:54:13;0.30;99.90
30063;DHT22;16889;67.864;24.990;2023-01-16T20:58:59;0.40;99.90
30063;DHT22;16889;67.864;24.990;2023-01-16T21:03:45;0.40;99.90
30063;DHT22;16889;67.864;24.990;2023-01-16T21:08:33;0.40;99.90
30063;DHT22;16889;67.864;24.990;2023-01-16T21:13:19;0.30;99.90
30063;DHT22;16889;67.864;24.990;2023-01-16T21:18:23;0.40;99.90
30063;DHT22;16889;67.864;24.990;2023-01-16T21:23:27;0.40;99.90
30063;DHT22;16889;67.864;24.990;2023-01-16T21:28:13;0.40;99.90
30063;DHT22;16889;67.864;24.990;2023-01-16T21:32:59;0.40;99.90
30063;DHT22;16889;67.864;24.990;2023-01-16T21:37:45;0.30;99.90
30063;DHT22;16889;67.864;24.990;2023-01-16T21:42:31;0.20;99.90
30063;DHT22;16889;67.864;24.990;2023-01-16T21:47:35;0.20;99.90
30063;DHT22;16889;67.864;24.990;2023-01-16T21:52:22;0.10;99.90
30063;DHT22;16889;67.864;24.990;2023-01-16T21:57:08;0.10;99.90
30063;DHT22;16889;67.864;24.990;2023-01-16T22:01:54;0.10;99.90
30063;DHT22;16889;67.864;24.990;2023-01-16T22:06:40;0.00;99.90
30063;DHT22;16889;67.864;24.990;2023-01-16T22:11:26;0.00;99.90
30063;DHT22;16889;67.864;24.990;2023-01-16T22:16:30;-0.10;99.90
30063;DHT22;16889;67.864;24.990;2023-01-16T22:21:35;-0.20;99.90
30063;DHT22;16889;67.864;24.990;2023-01-16T22:26:22;-0.50;99.90
30063;DHT22;16889;67.864;24.990;2023-01-16T22:31:14;-0.50;99.90
30063;DHT22;16889;67.864;24.990;2023-01-16T22:36:01;-0.60;99.90
30063;DHT22;16889;67.864;24.990;2023-01-16T22:40:48;-0.60;99.90
30063;DHT22;16889;67.864;24.990;2023-01-16T22:45:37;-0.80;99.90
30063;DHT22;16889;67.864;24.990;2023-01-16T22:50:41;-0.90;99.90
30063;DHT22;16889;67.864;24.990;2023-01-16T22:55:27;-1.10;99.90
30063;DHT22;16889;67.864;24.990;2023-01-16T23:00:14;-1.20;99.90
30063;DHT22;16889;67.864;24.990;2023-01-16T23:05:01;-1.30;99.90
30063;DHT22;16889;67.864;24.990;2023-01-16T23:09:47;-1.30;99.90
30063;DHT22;16889;67.864;24.990;2023-01-16T23:14:33;-1.30;99.90
30063;DHT22;16889;67.864;24.990;2023-01-16T23:19:25;-1.50;99.90
30063;DHT22;16889;67.864;24.990;2023-01-16T23:24:16;-1.50;99.90
30063;DHT22;16889;67.864;24.990;2023-01-16T23:29:05;-1.40;99.90
30063;DHT22;16889;67.864;24.990;2023-01-16T23:33:54;-1.50;99.90
30063;DHT22;16889;67.864;24.990;2023-01-16T23:38:40;-1.50;99.90
30063;DHT22;16889;67.864;24.990;2023-01-16T23:43:26;-1.50;99.90
30063;DHT22;16889;67.864;24.990;2023-01-16T23:48:31;-1.60;99.90
30063;DHT22;16889;67.864;24.990;2023-01-16T23:53:17;-1.80;99.90
30063;DHT22;16889;67.864;24.990;2023-01-16T23:58:03;-2.00;99.90
